Hobart, Pennsylvania
Current Conditions -  °F | °C
As of 4:53 PM on Wednesday 28 Jan 2015 (Local Time) from KTHV Reporting Station
Clear Clear  
Wind Chill: 22°   Ceiling: Unl
Heat Index: 29°   Visibility: 10mi
Dew Point:   Wind: 7mph
Humidity: 35%   Direction: 320°NW
Pressure: 30.23"   Gusts: NA
Location:  39.7863°N, 76.988°W
Report Text: KTHV 282153Z AUTO 32006KT 10SM CLR M02/M16 A3023 RMK AO2 SLP245 T10171156
Loading
Personal Weather Stations






























Interactive Weather Map New forecast layout! Learn more

10-Day Weather Forecast

Advertisements
Track Severe Weather on mobile